Time;durP1;ratioP1;P1;durP2;ratioP2;P2;SDS_P1;SDS_P2;PMS_P1;PMS_P2;Temp;Humidity;BMP_temperature;BMP_pressure;BME280_temperature;BME280_humidity;BME280_pressure;Samples;Min_cycle;Max_cycle;Signal;HPM_P1;HPM_P2
2024/01/30 00:00:04;;;;;;;55.42;19.55;;;10.30;99.90;;;;;;6190897;23;20005;-94
2024/01/30 00:02:30;;;;;;;53.38;19.73;;;10.30;99.90;;;;;;6203070;23;20009;-93
2024/01/30 00:04:56;;;;;;;41.42;18.50;;;10.30;99.90;;;;;;6205111;23;19996;-92
2024/01/30 00:07:22;;;;;;;44.40;18.88;;;10.30;99.90;;;;;;6208011;23;20056;-92
2024/01/30 00:09:48;;;;;;;44.72;18.95;;;10.30;99.90;;;;;;6203974;23;20000;-92
2024/01/30 00:12:14;;;;;;;43.65;18.88;;;10.30;99.90;;;;;;6202408;23;20344;-92
2024/01/30 00:14:43;;;;;;;57.38;19.15;;;10.30;99.90;;;;;;6202234;23;20083;-92
2024/01/30 00:17:09;;;;;;;48.58;19.77;;;10.30;99.90;;;;;;6201165;23;20095;-92
2024/01/30 00:19:35;;;;;;;42.80;19.38;;;10.30;99.90;;;;;;6197011;23;20008;-93
2024/01/30 00:22:00;;;;;;;35.22;17.73;;;10.30;99.90;;;;;;6194596;23;20467;-93
2024/01/30 00:24:26;;;;;;;45.25;19.73;;;10.30;99.90;;;;;;6194253;23;20012;-92
2024/01/30 00:26:52;;;;;;;48.17;18.63;;;10.30;99.90;;;;;;6193855;23;20012;-93
2024/01/30 00:29:19;;;;;;;42.60;18.00;;;10.30;99.90;;;;;;6193921;23;20001;-93
2024/01/30 00:31:46;;;;;;;46.58;19.25;;;10.30;99.90;;;;;;6194187;23;20077;-94
2024/01/30 00:34:11;;;;;;;41.88;18.30;;;10.30;99.90;;;;;;6192733;23;20440;-93
2024/01/30 00:36:37;;;;;;;42.53;18.33;;;10.40;99.90;;;;;;6191455;23;20027;-93
2024/01/30 00:39:06;;;;;;;45.35;17.90;;;10.40;99.90;;;;;;6191424;23;20597;-93
2024/01/30 00:41:32;;;;;;;41.17;17.60;;;10.40;99.90;;;;;;6191806;23;20012;-94
2024/01/30 00:43:58;;;;;;;41.28;16.88;;;10.50;99.90;;;;;;6191782;23;20058;-93
2024/01/30 00:46:23;;;;;;;44.35;16.42;;;10.50;99.90;;;;;;6191117;23;20012;-93
2024/01/30 00:48:49;;;;;;;48.83;16.30;;;10.50;99.90;;;;;;6191267;23;20000;-94
2024/01/30 00:51:15;;;;;;;38.85;16.08;;;10.50;99.90;;;;;;6190573;23;20004;-93
2024/01/30 00:53:41;;;;;;;35.92;14.93;;;10.50;99.90;;;;;;6193511;23;20000;-93
2024/01/30 00:56:07;;;;;;;35.95;15.07;;;10.50;99.90;;;;;;6193172;23;20113;-93
2024/01/30 00:58:35;;;;;;;42.28;16.70;;;10.50;99.90;;;;;;6193493;23;20027;-93
2024/01/30 01:01:00;;;;;;;49.00;16.90;;;10.40;99.90;;;;;;6192988;23;20032;-94
2024/01/30 01:03:27;;;;;;;38.25;15.75;;;10.50;99.90;;;;;;6219751;23;20001;-93
2024/01/30 01:05:52;;;;;;;43.38;17.10;;;10.50;99.90;;;;;;6192824;23;20039;-93
2024/01/30 01:08:18;;;;;;;40.10;17.27;;;10.50;99.90;;;;;;6193535;23;20023;-93
2024/01/30 01:10:44;;;;;;;47.80;17.60;;;10.50;99.90;;;;;;6192967;23;20059;-93
2024/01/30 01:13:09;;;;;;;39.17;17.08;;;10.50;99.90;;;;;;6191771;23;20310;-92
2024/01/30 01:15:35;;;;;;;50.15;17.70;;;10.40;99.90;;;;;;6191272;23;20004;-92
2024/01/30 01:18:01;;;;;;;49.47;16.95;;;10.40;99.90;;;;;;6191579;23;20012;-93
2024/01/30 01:20:26;;;;;;;45.85;15.93;;;10.40;99.90;;;;;;6192193;23;20039;-93
2024/01/30 01:22:53;;;;;;;34.08;13.25;;;10.40;99.90;;;;;;6191634;23;20333;-93
2024/01/30 01:25:18;;;;;;;35.85;13.93;;;10.40;99.90;;;;;;6191011;23;20005;-92
2024/01/30 01:27:51;;;;;;;37.92;15.00;;;10.40;99.90;;;;;;6191177;23;20019;-93
2024/01/30 01:30:21;;;;;;;37.40;13.05;;;10.40;99.90;;;;;;6191693;23;20035;-92
2024/01/30 01:32:57;;;;;;;29.42;12.77;;;10.40;99.90;;;;;;6192393;23;20015;-92
2024/01/30 01:35:27;;;;;;;29.73;12.18;;;10.40;99.90;;;;;;6191425;23;20013;-92
2024/01/30 01:37:57;;;;;;;28.80;10.60;;;10.40;99.90;;;;;;6191249;23;20033;-91
2024/01/30 01:40:24;;;;;;;27.20;12.13;;;10.40;99.90;;;;;;6190853;23;20008;-90
2024/01/30 01:42:54;;;;;;;33.55;11.77;;;10.40;99.90;;;;;;6190931;23;20000;-92
2024/01/30 01:45:20;;;;;;;28.65;11.73;;;10.40;99.90;;;;;;6190808;23;20009;-91
2024/01/30 01:47:50;;;;;;;20.15;8.82;;;10.40;99.90;;;;;;6190930;23;20009;-91
2024/01/30 01:50:20;;;;;;;23.58;10.90;;;10.40;99.90;;;;;;6190643;23;20053;-91
2024/01/30 01:52:49;;;;;;;23.30;10.38;;;10.30;99.90;;;;;;6190420;23;20013;-93
2024/01/30 01:55:18;;;;;;;10.13;5.25;;;10.30;99.90;;;;;;6190668;23;20009;-91
2024/01/30 01:57:45;;;;;;;5.78;3.58;;;10.30;99.90;;;;;;6189792;23;20005;-91
2024/01/30 02:00:11;;;;;;;3.70;2.75;;;10.00;99.90;;;;;;6190191;23;20062;-92
2024/01/30 02:02:39;;;;;;;3.22;2.58;;;9.80;99.90;;;;;;6189483;23;20008;-92
2024/01/30 02:05:05;;;;;;;3.25;2.35;;;9.70;99.90;;;;;;6190248;23;20059;-90
2024/01/30 02:07:31;;;;;;;3.55;2.05;;;9.50;99.90;;;;;;6189829;23;20005;-91
2024/01/30 02:09:57;;;;;;;2.63;2.10;;;9.40;99.90;;;;;;6190035;23;20035;-91
2024/01/30 02:12:23;;;;;;;2.20;2.00;;;9.30;99.90;;;;;;6189815;23;20067;-90
2024/01/30 02:14:49;;;;;;;3.03;2.03;;;9.10;99.90;;;;;;6189355;23;20425;-91
2024/01/30 02:17:17;;;;;;;3.53;2.03;;;9.00;99.90;;;;;;6190750;23;20035;-91
2024/01/30 02:19:43;;;;;;;2.78;2.10;;;8.90;99.90;;;;;;6192143;23;20059;-91
2024/01/30 02:22:10;;;;;;;3.72;2.47;;;8.80;99.90;;;;;;6190505;23;20008;-90
2024/01/30 02:24:35;;;;;;;4.72;2.28;;;8.80;99.90;;;;;;6190369;23;20003;-91
2024/01/30 02:27:01;;;;;;;5.68;2.83;;;8.70;99.90;;;;;;6216592;23;20099;-91
2024/01/30 02:29:26;;;;;;;5.70;2.95;;;8.60;99.90;;;;;;6189687;23;20001;-91
2024/01/30 02:31:52;;;;;;;5.45;3.10;;;8.50;99.90;;;;;;6190768;23;20047;-91
2024/01/30 02:34:19;;;;;;;4.07;3.03;;;8.50;99.90;;;;;;6190125;23;20005;-92
2024/01/30 02:36:45;;;;;;;4.68;2.97;;;8.40;99.90;;;;;;6190292;23;20099;-91
2024/01/30 02:39:11;;;;;;;3.40;2.55;;;8.40;99.90;;;;;;6190259;23;20007;-91
2024/01/30 02:41:37;;;;;;;4.35;3.15;;;8.30;99.90;;;;;;6189955;23;20005;-92
2024/01/30 02:44:03;;;;;;;3.65;2.90;;;8.20;99.90;;;;;;6190237;23;20012;-91
2024/01/30 02:46:29;;;;;;;2.97;2.63;;;8.20;99.90;;;;;;6190213;23;20012;-91
2024/01/30 02:48:55;;;;;;;3.60;2.72;;;8.10;99.90;;;;;;6190315;23;20018;-92
2024/01/30 02:51:21;;;;;;;3.33;2.67;;;8.10;99.90;;;;;;6190016;23;20016;-91
2024/01/30 02:53:49;;;;;;;4.55;2.70;;;8.00;99.90;;;;;;6189997;23;20000;-91
2024/01/30 02:56:15;;;;;;;3.95;2.95;;;8.00;99.90;;;;;;6190576;23;20015;-90
2024/01/30 02:58:41;;;;;;;2.47;2.13;;;8.00;99.90;;;;;;6190097;23;20096;-91
2024/01/30 03:01:07;;;;;;;3.03;2.50;;;7.90;99.90;;;;;;6190356;23;20007;-91
2024/01/30 03:03:35;;;;;;;2.60;2.30;;;7.90;99.90;;;;;;6190035;23;20000;-91
2024/01/30 03:06:00;;;;;;;2.10;1.90;;;7.90;99.90;;;;;;6190206;23;20017;-91
2024/01/30 03:08:26;;;;;;;3.28;2.08;;;7.90;99.90;;;;;;6190013;23;20012;-92
2024/01/30 03:10:52;;;;;;;2.30;2.10;;;7.90;99.90;;;;;;6190778;23;20087;-92
2024/01/30 03:13:18;;;;;;;1.55;1.45;;;7.90;99.90;;;;;;6190229;23;20008;-92
2024/01/30 03:15:43;;;;;;;1.45;1.35;;;7.80;99.90;;;;;;6191150;23;20008;-92
2024/01/30 03:18:09;;;;;;;2.03;1.38;;;7.80;99.90;;;;;;6191285;23;19997;-92
2024/01/30 03:20:35;;;;;;;1.20;1.10;;;7.80;99.90;;;;;;6190879;23;20004;-92
2024/01/30 03:23:01;;;;;;;1.30;1.20;;;7.80;99.90;;;;;;6190060;23;20340;-91
2024/01/30 03:25:26;;;;;;;0.90;0.90;;;7.80;99.90;;;;;;6190674;23;20015;-92
2024/01/30 03:27:52;;;;;;;0.90;0.90;;;7.80;99.90;;;;;;6207200;23;20052;-92
2024/01/30 03:30:18;;;;;;;1.00;0.90;;;7.80;99.90;;;;;;6209872;23;20062;-92
2024/01/30 03:32:44;;;;;;;0.73;0.73;;;7.80;99.90;;;;;;6203465;23;20001;-91
2024/01/30 03:35:10;;;;;;;0.77;0.77;;;7.80;99.90;;;;;;6189951;23;20009;-91
2024/01/30 03:37:35;;;;;;;0.52;0.52;;;7.80;99.90;;;;;;6189772;23;20035;-92
2024/01/30 03:40:02;;;;;;;0.63;0.60;;;7.70;99.90;;;;;;6190437;23;20016;-91
2024/01/30 03:42:28;;;;;;;1.23;0.50;;;7.70;99.90;;;;;;6191336;23;20028;-93
2024/01/30 03:44:55;;;;;;;0.70;0.70;;;7.70;99.90;;;;;;6198477;23;20447;-92
2024/01/30 03:47:21;;;;;;;0.40;0.40;;;7.70;99.90;;;;;;6197777;23;20019;-93
2024/01/30 03:49:47;;;;;;;1.17;1.08;;;7.70;99.90;;;;;;6192678;23;20009;-92
2024/01/30 03:52:12;;;;;;;0.60;0.60;;;7.70;99.90;;;;;;6190518;23;20060;-92
2024/01/30 03:54:38;;;;;;;0.55;0.55;;;7.70;99.90;;;;;;6189813;23;20052;-90
2024/01/30 03:57:04;;;;;;;0.60;0.60;;;7.70;99.90;;;;;;6190193;23;20008;-92
2024/01/30 03:59:30;;;;;;;0.80;0.80;;;7.60;99.90;;;;;;6190844;23;20004;-91
2024/01/30 04:01:56;;;;;;;1.55;1.30;;;7.60;99.90;;;;;;6190532;23;20013;-91
2024/01/30 04:04:23;;;;;;;1.40;1.30;;;7.50;99.90;;;;;;6217080;23;20009;-90
2024/01/30 04:06:48;;;;;;;1.52;1.27;;;7.40;99.90;;;;;;6190313;23;20348;-90
2024/01/30 04:09:14;;;;;;;1.77;1.38;;;7.40;99.90;;;;;;6189863;23;20001;-90
2024/01/30 04:11:41;;;;;;;3.65;1.50;;;7.40;99.90;;;;;;6189544;23;20015;-91
2024/01/30 04:14:07;;;;;;;4.50;1.95;;;7.40;99.90;;;;;;6189579;23;20001;-90
2024/01/30 04:16:33;;;;;;;0.85;0.80;;;7.30;99.90;;;;;;6189684;23;19997;-91
2024/01/30 04:18:59;;;;;;;1.58;1.35;;;7.30;99.90;;;;;;6189519;23;20015;-91
2024/01/30 04:21:24;;;;;;;1.50;1.02;;;7.30;99.90;;;;;;6188752;23;20067;-90
2024/01/30 04:23:53;;;;;;;3.78;1.60;;;7.30;99.90;;;;;;6189521;23;20091;-92
2024/01/30 04:26:19;;;;;;;2.53;1.70;;;7.30;99.90;;;;;;6189671;23;20017;-90
2024/01/30 04:28:45;;;;;;;2.95;1.63;;;7.30;99.90;;;;;;6189525;23;20001;-90
2024/01/30 04:31:11;;;;;;;2.83;1.73;;;7.30;99.90;;;;;;6189614;23;20020;-90
2024/01/30 04:33:37;;;;;;;2.22;1.70;;;7.30;99.90;;;;;;6221133;23;19997;-91
2024/01/30 04:36:04;;;;;;;2.67;1.83;;;7.20;99.90;;;;;;6190161;23;20008;-90
2024/01/30 04:38:31;;;;;;;3.25;1.90;;;7.20;99.90;;;;;;6189556;23;20005;-89
2024/01/30 04:40:57;;;;;;;3.25;2.10;;;7.20;99.90;;;;;;6189424;23;20008;-89
2024/01/30 04:43:22;;;;;;;3.05;2.20;;;7.20;99.90;;;;;;6189814;23;20399;-90
2024/01/30 04:45:49;;;;;;;3.75;2.25;;;7.10;99.90;;;;;;6190163;23;20004;-91
2024/01/30 04:48:15;;;;;;;3.50;2.55;;;7.10;99.90;;;;;;6191172;23;20009;-90
2024/01/30 04:50:40;;;;;;;2.88;1.80;;;7.10;99.90;;;;;;6192082;23;20438;-90
2024/01/30 04:53:07;;;;;;;3.85;2.00;;;7.10;99.90;;;;;;6192135;23;20004;-90
2024/01/30 04:55:33;;;;;;;2.80;2.17;;;7.10;99.90;;;;;;6191423;23;20036;-90
2024/01/30 04:57:59;;;;;;;3.28;2.15;;;7.00;99.90;;;;;;6191512;23;20148;-91
2024/01/30 05:00:24;;;;;;;2.92;1.98;;;7.00;99.90;;;;;;6191532;23;20083;-91
2024/01/30 05:02:50;;;;;;;2.65;2.00;;;7.00;99.90;;;;;;6191174;23;20008;-91
2024/01/30 05:05:16;;;;;;;3.92;2.38;;;7.00;99.90;;;;;;6191494;23;20019;-92
2024/01/30 05:07:42;;;;;;;4.43;3.05;;;7.00;99.90;;;;;;6194377;23;20015;-91
2024/01/30 05:10:08;;;;;;;3.30;2.33;;;7.10;99.90;;;;;;6194650;23;20363;-90
2024/01/30 05:12:34;;;;;;;5.78;3.15;;;7.00;99.90;;;;;;6218528;23;20092;-91
2024/01/30 05:14:59;;;;;;;5.28;3.30;;;7.10;99.90;;;;;;6191107;23;20009;-91
2024/01/30 05:17:25;;;;;;;4.95;3.22;;;7.00;99.90;;;;;;6191239;23;20008;-91
2024/01/30 05:19:51;;;;;;;8.00;3.55;;;7.00;99.90;;;;;;6191525;23;20502;-90
2024/01/30 05:22:18;;;;;;;5.32;3.45;;;7.00;99.90;;;;;;6216678;23;20000;-90
2024/01/30 05:24:44;;;;;;;3.88;2.95;;;6.90;99.90;;;;;;6191676;23;20446;-89
2024/01/30 05:27:10;;;;;;;3.90;2.70;;;6.90;99.90;;;;;;6216860;23;20017;-91
2024/01/30 05:29:36;;;;;;;3.60;2.90;;;6.90;99.90;;;;;;6190418;23;20444;-91
2024/01/30 05:32:02;;;;;;;4.47;2.78;;;6.90;99.90;;;;;;6190719;23;20111;-89
2024/01/30 05:34:28;;;;;;;4.28;2.20;;;6.80;99.90;;;;;;6191185;23;20004;-91
2024/01/30 05:36:54;;;;;;;2.42;1.90;;;6.80;99.90;;;;;;6191322;23;20314;-90
2024/01/30 05:39:19;;;;;;;2.50;1.80;;;6.80;99.90;;;;;;6191081;23;20004;-90
2024/01/30 05:41:45;;;;;;;3.08;2.00;;;6.80;99.90;;;;;;6191173;23;20338;-91
2024/01/30 05:44:11;;;;;;;3.00;2.35;;;6.80;99.90;;;;;;6191447;23;20091;-90
2024/01/30 05:46:37;;;;;;;3.85;2.38;;;6.80;99.90;;;;;;6190968;23;20013;-90
2024/01/30 05:49:02;;;;;;;5.40;2.80;;;6.70;99.90;;;;;;6191278;23;20000;-90
2024/01/30 05:51:28;;;;;;;5.13;2.70;;;6.70;99.90;;;;;;6190904;23;20021;-90
2024/01/30 05:53:54;;;;;;;6.38;3.30;;;6.70;99.90;;;;;;6191100;23;20482;-90
2024/01/30 05:56:20;;;;;;;5.75;3.13;;;6.70;99.90;;;;;;6190776;23;20051;-90
2024/01/30 05:58:46;;;;;;;5.35;3.35;;;6.70;99.90;;;;;;6190392;23;20001;-91
2024/01/30 06:01:14;;;;;;;5.00;3.45;;;6.70;99.90;;;;;;6191085;23;20024;-90
2024/01/30 06:03:40;;;;;;;4.50;3.13;;;6.70;99.90;;;;;;6191213;23;20519;-89
2024/01/30 06:06:06;;;;;;;4.70;2.53;;;6.70;99.90;;;;;;6190346;23;20019;-89
2024/01/30 06:08:32;;;;;;;4.80;2.60;;;6.70;99.90;;;;;;6189935;23;20012;-91
2024/01/30 06:10:57;;;;;;;4.45;2.72;;;6.70;99.90;;;;;;6190308;23;20337;-89
2024/01/30 06:13:23;;;;;;;4.75;2.70;;;6.70;99.90;;;;;;6190244;23;20015;-90
2024/01/30 06:15:49;;;;;;;6.90;2.80;;;6.70;99.90;;;;;;6190459;23;20001;-89
2024/01/30 06:18:14;;;;;;;5.78;2.90;;;6.70;99.90;;;;;;6190652;23;20008;-90
2024/01/30 06:20:40;;;;;;;3.63;2.22;;;6.70;99.90;;;;;;6190207;23;20011;-90
2024/01/30 06:23:06;;;;;;;2.75;1.90;;;6.60;99.90;;;;;;6190703;23;20012;-91
2024/01/30 06:25:32;;;;;;;3.25;2.33;;;6.60;99.90;;;;;;6189580;23;20020;-89
2024/01/30 06:27:57;;;;;;;3.45;1.58;;;6.60;99.90;;;;;;6190207;23;20059;-90
2024/01/30 06:30:23;;;;;;;5.60;1.95;;;6.60;99.90;;;;;;6190105;23;20027;-90
2024/01/30 06:32:49;;;;;;;2.40;1.65;;;6.60;99.90;;;;;;6190400;23;20117;-90
2024/01/30 06:35:14;;;;;;;3.10;1.98;;;6.50;99.90;;;;;;6190567;23;20451;-90
2024/01/30 06:37:40;;;;;;;3.72;1.70;;;6.50;99.90;;;;;;6191221;23;20168;-91
2024/01/30 06:40:06;;;;;;;5.35;1.98;;;6.50;99.90;;;;;;6190522;23;20026;-90
2024/01/30 06:42:32;;;;;;;2.47;1.58;;;6.50;99.90;;;;;;6190532;23;20380;-90
2024/01/30 06:44:58;;;;;;;2.85;1.70;;;6.50;99.90;;;;;;6190746;23;20007;-90
2024/01/30 06:47:23;;;;;;;2.25;1.60;;;6.50;99.90;;;;;;6191095;23;20432;-91
2024/01/30 06:49:49;;;;;;;2.83;1.83;;;6.50;99.90;;;;;;6193714;23;20159;-90
2024/01/30 06:52:15;;;;;;;2.90;1.70;;;6.50;99.90;;;;;;6190332;23;20336;-91
2024/01/30 06:54:40;;;;;;;4.28;1.80;;;6.50;99.90;;;;;;6190453;23;20005;-91
2024/01/30 06:57:11;;;;;;;2.17;1.33;;;6.50;99.90;;;;;;6190071;23;20008;-91
2024/01/30 06:59:43;;;;;;;1.92;1.50;;;6.40;99.90;;;;;;6190057;23;20009;-91
2024/01/30 07:02:11;;;;;;;1.60;1.10;;;6.40;99.90;;;;;;6190012;23;20008;-90
2024/01/30 07:04:37;;;;;;;1.40;1.17;;;6.50;99.90;;;;;;6190464;23;20014;-91
2024/01/30 07:07:05;;;;;;;3.20;1.23;;;6.50;99.90;;;;;;6190009;23;20055;-90
2024/01/30 07:09:31;;;;;;;1.83;1.13;;;6.50;99.90;;;;;;6189923;23;20008;-91
2024/01/30 07:11:58;;;;;;;0.52;0.30;;;6.50;99.90;;;;;;6189840;23;20074;-91
2024/01/30 07:14:24;;;;;;;0.50;0.50;;;6.40;99.90;;;;;;6190281;23;20087;-90
2024/01/30 07:16:50;;;;;;;0.13;0.13;;;6.40;99.90;;;;;;6189656;23;20001;-91
2024/01/30 07:19:16;;;;;;;0.20;0.17;;;6.40;99.90;;;;;;6190449;23;20008;-89
2024/01/30 07:21:43;;;;;;;0.50;0.15;;;6.30;99.90;;;;;;6190618;23;20016;-91
2024/01/30 07:24:09;;;;;;;0.10;0.10;;;6.30;99.90;;;;;;6193671;23;20058;-92
2024/01/30 07:26:35;;;;;;;0.20;0.17;;;6.30;99.90;;;;;;6195638;23;20044;-91
2024/01/30 07:29:01;;;;;;;0.25;0.10;;;6.30;99.90;;;;;;6194479;23;20039;-91
2024/01/30 07:31:27;;;;;;;0.20;0.20;;;6.30;99.90;;;;;;6216633;23;20021;-91
2024/01/30 07:33:54;;;;;;;1.55;0.40;;;6.30;99.90;;;;;;6190225;23;20349;-89
2024/01/30 07:36:20;;;;;;;0.50;0.28;;;6.30;99.90;;;;;;6191183;23;20425;-91
2024/01/30 07:38:45;;;;;;;0.20;0.20;;;6.30;99.90;;;;;;6189764;23;20004;-92
2024/01/30 07:41:11;;;;;;;0.47;0.47;;;6.30;99.90;;;;;;6189858;23;20000;-92
2024/01/30 07:43:38;;;;;;;2.55;0.20;;;6.30;99.90;;;;;;6190078;23;20005;-93
2024/01/30 07:46:06;;;;;;;0.60;0.35;;;6.30;99.90;;;;;;6190554;23;20008;-92
2024/01/30 07:48:34;;;;;;;0.28;0.17;;;6.30;99.90;;;;;;6190094;23;20151;-91
2024/01/30 07:51:00;;;;;;;1.00;0.40;;;6.30;99.90;;;;;;6189547;23;20031;-92
2024/01/30 07:53:26;;;;;;;1.75;0.25;;;6.30;99.90;;;;;;6190120;23;20436;-91
2024/01/30 07:55:52;;;;;;;0.28;0.20;;;6.40;99.90;;;;;;6190578;23;20005;-91
2024/01/30 07:58:18;;;;;;;0.47;0.20;;;6.40;99.90;;;;;;6190004;23;20008;-92
2024/01/30 08:00:45;;;;;;;0.20;0.10;;;6.40;99.90;;;;;;6195757;23;20035;-91
2024/01/30 08:03:10;;;;;;;1.95;0.15;;;6.40;99.90;;;;;;6203229;23;20001;-89
2024/01/30 08:05:36;;;;;;;0.50;0.30;;;6.40;99.90;;;;;;6204222;23;20008;-91
2024/01/30 08:08:02;;;;;;;0.60;0.45;;;6.40;99.90;;;;;;6195403;23;20075;-93
2024/01/30 08:10:28;;;;;;;0.73;0.20;;;6.40;99.90;;;;;;6189618;23;19997;-92
2024/01/30 08:12:53;;;;;;;1.23;0.25;;;6.40;99.90;;;;;;6189710;23;20068;-91
2024/01/30 08:15:19;;;;;;;0.90;0.40;;;6.30;99.90;;;;;;6189773;23;20054;-92
2024/01/30 08:17:45;;;;;;;0.85;0.55;;;6.30;99.90;;;;;;6189200;23;20391;-92
2024/01/30 08:20:13;;;;;;;1.17;0.70;;;6.30;99.90;;;;;;6188916;23;20004;-91
2024/01/30 08:22:42;;;;;;;2.45;1.05;;;6.30;99.90;;;;;;6191336;23;20009;-92
2024/01/30 08:25:09;;;;;;;1.40;0.80;;;6.20;99.90;;;;;;6191649;23;20008;-91
2024/01/30 08:27:37;;;;;;;2.75;1.20;;;6.20;99.90;;;;;;6192990;23;20012;-91
2024/01/30 08:30:03;;;;;;;3.78;1.63;;;6.20;99.90;;;;;;6191232;23;20139;-91
2024/01/30 08:32:29;;;;;;;4.30;2.17;;;6.20;99.90;;;;;;6191579;23;20013;-91
2024/01/30 08:34:55;;;;;;;1.70;0.70;;;6.20;99.90;;;;;;6191767;23;20332;-90
2024/01/30 08:37:20;;;;;;;1.65;0.80;;;6.20;99.90;;;;;;6192791;23;20475;-91
2024/01/30 08:39:46;;;;;;;1.98;0.75;;;6.20;99.90;;;;;;6192245;23;20005;-92
2024/01/30 08:42:12;;;;;;;0.60;0.43;;;6.20;99.90;;;;;;6191723;23;20059;-92
2024/01/30 08:44:39;;;;;;;1.77;0.60;;;6.20;99.90;;;;;;6191057;23;20388;-91
2024/01/30 08:47:05;;;;;;;2.13;0.65;;;6.20;99.90;;;;;;6191714;23;20044;-91
2024/01/30 08:49:32;;;;;;;0.38;0.30;;;6.20;99.90;;;;;;6191452;23;20005;-91
2024/01/30 08:51:58;;;;;;;1.13;0.32;;;6.20;99.90;;;;;;6191765;23;20008;-92
2024/01/30 08:54:24;;;;;;;0.70;0.60;;;6.20;99.90;;;;;;6191935;23;20508;-91
2024/01/30 08:56:52;;;;;;;1.10;0.38;;;6.20;99.90;;;;;;6191938;23;20007;-91
2024/01/30 08:59:18;;;;;;;0.75;0.40;;;6.20;99.90;;;;;;6191215;23;20004;-92
2024/01/30 09:01:49;;;;;;;0.80;0.50;;;6.20;99.90;;;;;;6191082;23;20004;-91
2024/01/30 09:04:16;;;;;;;0.98;0.50;;;6.20;99.90;;;;;;6191312;23;20008;-91
2024/01/30 09:06:44;;;;;;;0.68;0.30;;;6.20;99.90;;;;;;6191515;23;20019;-91
2024/01/30 09:09:10;;;;;;;0.38;0.22;;;6.20;99.90;;;;;;6191137;23;20000;-91
2024/01/30 09:11:37;;;;;;;0.57;0.32;;;6.20;99.90;;;;;;6191512;23;20011;-92
2024/01/30 09:14:03;;;;;;;1.70;1.10;;;6.20;99.90;;;;;;6191505;23;20011;-92
2024/01/30 09:16:31;;;;;;;1.73;0.60;;;6.20;99.90;;;;;;6191700;23;20040;-92
2024/01/30 09:18:57;;;;;;;2.42;0.70;;;6.20;99.90;;;;;;6188818;23;20004;-91
2024/01/30 09:21:23;;;;;;;1.40;0.95;;;6.20;99.90;;;;;;6191235;23;20009;-90
2024/01/30 09:23:49;;;;;;;1.73;0.90;;;6.20;99.90;;;;;;6191646;23;20015;-90
2024/01/30 09:26:14;;;;;;;0.70;0.63;;;6.20;99.90;;;;;;6191426;23;20060;-91
2024/01/30 09:28:42;;;;;;;0.63;0.63;;;6.20;99.90;;;;;;6191608;23;20376;-91
2024/01/30 09:31:12;;;;;;;0.60;0.60;;;6.10;99.90;;;;;;6191493;23;20067;-91
2024/01/30 09:33:39;;;;;;;0.50;0.40;;;6.10;99.90;;;;;;6216358;23;20001;-92
2024/01/30 09:36:05;;;;;;;0.30;0.30;;;6.10;99.90;;;;;;6191344;23;20066;-90
2024/01/30 09:38:36;;;;;;;1.90;0.63;;;6.10;99.90;;;;;;6191865;23;20000;-91
2024/01/30 09:41:08;;;;;;;0.75;0.57;;;6.10;99.90;;;;;;6216608;23;20518;-92
2024/01/30 09:43:34;;;;;;;2.53;1.20;;;6.10;99.90;;;;;;6190520;23;20459;-91
2024/01/30 09:46:03;;;;;;;1.10;0.70;;;6.00;99.90;;;;;;6191397;23;20012;-91
2024/01/30 09:48:30;;;;;;;0.52;0.52;;;6.10;99.90;;;;;;6191500;23;20000;-91
2024/01/30 09:50:58;;;;;;;2.42;0.50;;;6.10;99.90;;;;;;6191009;23;20036;-92
2024/01/30 09:53:23;;;;;;;0.30;0.30;;;6.10;99.90;;;;;;6184092;23;20001;-92
2024/01/30 09:55:50;;;;;;;0.60;0.60;;;6.10;99.90;;;;;;6214430;23;20052;-93
2024/01/30 09:58:16;;;;;;;0.55;0.55;;;6.20;99.90;;;;;;6189279;23;20011;-92
2024/01/30 10:00:42;;;;;;;2.45;0.68;;;6.20;99.90;;;;;;6191976;23;20000;-91
2024/01/30 10:03:09;;;;;;;2.85;1.08;;;6.20;99.90;;;;;;6189908;23;20012;-91
2024/01/30 10:05:39;;;;;;;2.15;1.33;;;6.20;99.90;;;;;;6191236;23;20008;-93
2024/01/30 10:08:08;;;;;;;1.40;0.40;;;6.20;99.90;;;;;;6216581;23;20019;-93
2024/01/30 10:10:35;;;;;;;0.90;0.65;;;6.30;99.90;;;;;;6191481;23;20024;-92
2024/01/30 10:13:02;;;;;;;0.68;0.55;;;6.30;99.90;;;;;;6216985;23;20228;-93
2024/01/30 10:15:28;;;;;;;1.15;0.60;;;6.40;99.90;;;;;;6191276;23;20008;-93
2024/01/30 10:17:57;;;;;;;0.63;0.50;;;6.50;99.90;;;;;;6190740;23;20091;-93
2024/01/30 10:20:25;;;;;;;0.63;0.52;;;6.50;99.90;;;;;;6190726;23;19997;-92
2024/01/30 10:22:51;;;;;;;0.50;0.47;;;6.60;99.90;;;;;;6190665;23;20067;-92
2024/01/30 10:25:21;;;;;;;1.10;0.60;;;6.60;99.90;;;;;;6190872;23;20001;-92
2024/01/30 10:27:52;;;;;;;0.68;0.68;;;6.60;99.90;;;;;;6218003;23;20009;-92
2024/01/30 10:30:18;;;;;;;;;;;6.70;99.90;;;;;;6190542;23;20009;-93
2024/01/30 10:32:44;;;;;;;1.33;0.75;;;6.70;99.90;;;;;;6220249;23;19907;-92
2024/01/30 10:35:10;;;;;;;1.15;0.85;;;6.70;99.90;;;;;;6190962;23;20005;-91
2024/01/30 10:37:36;;;;;;;2.30;0.80;;;6.80;99.90;;;;;;6193630;23;20020;-92
2024/01/30 10:40:05;;;;;;;1.02;0.80;;;6.80;99.90;;;;;;6193724;23;20013;-92
2024/01/30 10:42:32;;;;;;;2.58;0.70;;;6.80;99.90;;;;;;6216877;23;20507;-92
2024/01/30 10:45:12;;;;;;;0.90;0.60;;;6.90;99.90;;;;;;6191539;23;20009;-93
2024/01/30 10:47:43;;;;;;;0.73;0.50;;;6.90;99.90;;;;;;6217047;23;20020;-93
2024/01/30 10:50:10;;;;;;;0.63;0.50;;;7.00;99.90;;;;;;6193180;23;20000;-92
2024/01/30 10:52:37;;;;;;;0.45;0.40;;;7.00;99.90;;;;;;6201314;23;20004;-90
2024/01/30 10:55:07;;;;;;;1.85;0.32;;;7.10;99.90;;;;;;6200795;23;20023;-94
2024/01/30 10:57:35;;;;;;;0.63;0.40;;;7.10;99.90;;;;;;6200579;23;20059;-92
2024/01/30 11:00:10;;;;;;;0.28;0.28;;;7.10;99.90;;;;;;6195532;23;20055;-92
2024/01/30 11:02:43;;;;;;;0.40;0.40;;;7.10;99.90;;;;;;6193714;23;20020;-91
2024/01/30 11:05:09;;;;;;;0.40;0.40;;;7.20;99.90;;;;;;6191493;23;20021;-92
2024/01/30 11:07:35;;;;;;;0.38;0.30;;;7.30;99.90;;;;;;6191617;23;20015;-92
2024/01/30 11:10:05;;;;;;;0.50;0.50;;;7.50;99.90;;;;;;6192696;23;20000;-94
2024/01/30 11:12:35;;;;;;;0.50;0.50;;;7.70;99.90;;;;;;6191415;23;20008;-92
2024/01/30 11:15:08;;;;;;;1.98;0.50;;;7.80;99.90;;;;;;6191054;23;20019;-92
2024/01/30 11:17:49;;;;;;;0.40;0.40;;;8.00;99.90;;;;;;6190852;23;20008;-92
2024/01/30 11:20:25;;;;;;;;;;;8.10;99.90;;;;;;6215101;23;20075;-93
2024/01/30 11:22:54;;;;;;;0.40;0.40;;;8.30;99.90;;;;;;6193005;23;19919;-94
2024/01/30 11:25:24;;;;;;;1.50;0.63;;;8.50;99.90;;;;;;6189351;23;20009;-94
2024/01/30 11:27:52;;;;;;;3.40;1.08;;;8.60;99.90;;;;;;6190292;23;20008;-94
2024/01/30 11:30:25;;;;;;;0.52;0.50;;;8.70;99.90;;;;;;6192176;23;20088;-95
2024/01/30 11:33:08;;;;;;;0.70;0.70;;;8.80;99.90;;;;;;6217264;23;20039;-94
2024/01/30 11:35:37;;;;;;;0.57;0.50;;;8.80;99.90;;;;;;6189945;23;20015;-94
2024/01/30 11:38:04;;;;;;;0.55;0.52;;;8.80;99.90;;;;;;6189264;23;20092;-94
2024/01/30 11:40:31;;;;;;;0.60;0.50;;;8.80;99.90;;;;;;6190487;23;20008;-94
2024/01/30 11:42:58;;;;;;;1.63;0.38;;;8.80;99.90;;;;;;6215782;23;20005;-93
2024/01/30 11:45:24;;;;;;;0.57;0.57;;;8.80;99.90;;;;;;6190785;23;20000;-93
2024/01/30 11:47:50;;;;;;;0.73;0.55;;;8.90;99.90;;;;;;6190434;23;20108;-92
2024/01/30 11:50:16;;;;;;;0.65;0.60;;;9.00;99.90;;;;;;6191202;23;20001;-92
2024/01/30 11:52:44;;;;;;;2.63;0.57;;;8.90;99.90;;;;;;6191447;23;20008;-93
2024/01/30 11:55:10;;;;;;;0.65;0.63;;;8.90;99.90;;;;;;6190980;23;20007;-93
2024/01/30 11:57:36;;;;;;;3.08;0.70;;;8.90;99.90;;;;;;6215984;23;20004;-94
2024/01/30 12:00:10;;;;;;;0.65;0.65;;;8.90;99.90;;;;;;6192015;23;20008;-93
2024/01/30 12:02:43;;;;;;;1.88;0.85;;;8.90;99.90;;;;;;6191140;23;20345;-95
2024/01/30 12:05:11;;;;;;;1.83;1.17;;;9.00;99.90;;;;;;6191926;23;20004;-95
2024/01/30 12:07:37;;;;;;;0.93;0.82;;;9.10;99.90;;;;;;6197525;23;20008;-95
2024/01/30 12:10:05;;;;;;;1.30;1.17;;;9.20;99.90;;;;;;6195977;23;20314;-94
2024/01/30 12:12:41;;;;;;;1.27;1.17;;;9.30;99.90;;;;;;6201648;23;20043;-95
2024/01/30 12:15:08;;;;;;;1.77;0.90;;;9.50;99.90;;;;;;6215033;23;20055;-94
2024/01/30 12:17:48;;;;;;;1.25;1.15;;;9.50;99.90;;;;;;6214884;23;20015;-95
2024/01/30 12:20:23;;;;;;;2.85;1.30;;;9.50;99.90;;;;;;6215525;23;20003;-95
2024/01/30 12:22:53;;;;;;;1.92;1.42;;;9.30;99.90;;;;;;6207511;23;20017;-95
2024/01/30 12:25:22;;;;;;;2.63;1.58;;;9.20;99.90;;;;;;6205936;23;20004;-95
2024/01/30 12:27:50;;;;;;;1.53;1.00;;;9.10;99.90;;;;;;6207005;23;20010;-94
2024/01/30 12:30:17;;;;;;;1.48;1.27;;;8.80;99.90;;;;;;6209292;23;20032;-94
2024/01/30 12:32:52;;;;;;;0.82;0.82;;;8.60;99.90;;;;;;6241234;23;19996;-96
2024/01/30 12:35:19;;;;;;;0.88;0.82;;;8.50;99.90;;;;;;6215632;23;19995;-94
2024/01/30 12:37:46;;;;;;;0.88;0.75;;;8.30;99.90;;;;;;6215942;23;19988;-94
2024/01/30 12:40:17;;;;;;;0.68;0.68;;;8.30;99.90;;;;;;6240955;22;20012;-95
2024/01/30 12:42:46;;;;;;;0.80;0.80;;;8.20;99.90;;;;;;6216106;23;20017;-93
2024/01/30 12:45:14;;;;;;;0.95;0.77;;;8.20;99.90;;;;;;6242220;23;19989;-95
2024/01/30 12:47:41;;;;;;;1.13;0.95;;;8.20;99.90;;;;;;6200325;23;20005;-95
2024/01/30 12:54:11;;;;;;;;;;;8.00;99.90;;;;;;6112580;23;20021;-94